Time;durP1;ratioP1;P1;durP2;ratioP2;P2;SDS_P1;SDS_P2;PMS_P1;PMS_P2;Temp;Humidity;BMP_temperature;BMP_pressure;BME280_temperature;BME280_humidity;BME280_pressure;Samples;Min_cycle;Max_cycle;Signal;HPM_P1;HPM_P2
2021/07/28 00:02:09;;;;;;;;;;;18.20;99.90;;;;;;5078801;28;20391;-67
2021/07/28 00:04:35;;;;;;;;;;;18.20;99.90;;;;;;5091441;28;19912;-67
2021/07/28 00:07:01;;;;;;;;;;;18.20;99.90;;;;;;5079740;28;19916;-67
2021/07/28 00:09:27;;;;;;;;;;;18.20;99.90;;;;;;5076768;28;19931;-67
2021/07/28 00:11:52;;;;;;;;;;;18.20;99.90;;;;;;5088239;28;19955;-66
2021/07/28 00:14:18;;;;;;;;;;;18.20;99.90;;;;;;5093251;28;20403;-66
2021/07/28 00:16:44;;;;;;;;;;;18.20;99.90;;;;;;5096433;28;19923;-68
2021/07/28 00:24:21;;;;;;;;;;;18.20;99.90;;;;;;5083368;28;19919;-67
2021/07/28 00:26:47;;;;;;;;;;;18.20;99.90;;;;;;5077457;28;19948;-66
2021/07/28 00:29:13;;;;;;;;;;;18.20;99.90;;;;;;5076446;28;20392;-66
2021/07/28 00:31:39;;;;;;;;;;;18.10;99.90;;;;;;5084421;28;19927;-66
2021/07/28 00:34:05;;;;;;;;;;;18.20;99.90;;;;;;5078409;28;19923;-66
2021/07/28 00:36:30;;;;;;;;;;;18.20;99.90;;;;;;5074627;28;19916;-67
2021/07/28 00:38:56;;;;;;;;;;;18.20;99.90;;;;;;5076090;28;20374;-66
2021/07/28 00:41:22;;;;;;;;;;;18.20;99.90;;;;;;5087690;28;19916;-66
2021/07/28 00:43:48;;;;;;;;;;;18.10;99.90;;;;;;5095890;28;19916;-66
2021/07/28 00:46:14;;;;;;;;;;;18.10;99.90;;;;;;5091611;28;19924;-66
2021/07/28 00:48:40;;;;;;;;;;;18.10;99.90;;;;;;5090835;28;19916;-68
2021/07/28 00:51:06;;;;;;;;;;;18.10;99.90;;;;;;5083044;28;19924;-67
2021/07/28 00:53:32;;;;;;;;;;;18.00;99.90;;;;;;5076392;28;19916;-65
2021/07/28 00:55:58;;;;;;;;;;;18.10;99.90;;;;;;5079924;28;19919;-67
2021/07/28 00:58:24;;;;;;;;;;;18.00;99.90;;;;;;5092942;28;20288;-67
2021/07/28 01:00:50;;;;;;;;;;;18.00;99.90;;;;;;5091966;28;19916;-68
2021/07/28 01:03:16;;;;;;;;;;;18.00;99.90;;;;;;5080592;28;19917;-68
2021/07/28 01:05:42;;;;;;;;;;;18.00;99.90;;;;;;5076051;28;19916;-67
2021/07/28 01:08:08;;;;;;;;;;;18.00;99.90;;;;;;5079711;28;20273;-67
2021/07/28 01:10:34;;;;;;;;;;;18.00;99.90;;;;;;5083999;28;19989;-67
2021/07/28 01:13:03;;;;;;;;;;;18.00;99.90;;;;;;5091564;28;19912;-68
2021/07/28 01:15:32;;;;;;;;;;;18.00;99.90;;;;;;5080083;28;19923;-67
2021/07/28 01:18:02;;;;;;;;;;;18.00;99.90;;;;;;5075441;28;20412;-68
2021/07/28 01:20:30;;;;;;;;;;;18.00;99.90;;;;;;5074355;28;19935;-67
2021/07/28 01:22:56;;;;;;;;;;;18.00;99.90;;;;;;5075182;28;19913;-67
2021/07/28 01:25:22;;;;;;;;;;;18.00;99.90;;;;;;5090707;28;19935;-66
2021/07/28 01:27:48;;;;;;;;;;;18.00;99.90;;;;;;5090606;28;19917;-67
2021/07/28 01:30:17;;;;;;;;;;;18.00;99.90;;;;;;5090913;28;19916;-67
2021/07/28 01:32:43;;;;;;;;;;;17.90;99.90;;;;;;5077456;28;19916;-68
2021/07/28 01:35:10;;;;;;;;;;;18.00;99.90;;;;;;5083236;28;19927;-67
2021/07/28 01:37:36;;;;;;;;;;;18.00;99.90;;;;;;5079102;28;19917;-67
2021/07/28 01:40:02;;;;;;;;;;;18.00;99.90;;;;;;5083800;28;19919;-67
2021/07/28 01:42:30;;;;;;;;;;;18.00;99.90;;;;;;5093075;28;19924;-67
2021/07/28 01:44:56;;;;;;;;;;;18.00;99.90;;;;;;5094633;28;19923;-67
2021/07/28 01:47:22;;;;;;;;;;;18.00;99.90;;;;;;5094433;28;19916;-67
2021/07/28 01:49:48;;;;;;;;;;;18.00;99.90;;;;;;5079375;28;19924;-67
2021/07/28 01:52:14;;;;;;;;;;;18.00;99.90;;;;;;5087013;28;20273;-67
2021/07/28 01:54:40;;;;;;;;;;;18.00;99.90;;;;;;5094331;28;19923;-67
2021/07/28 01:57:06;;;;;;;;;;;18.00;99.90;;;;;;5093640;28;19913;-66
2021/07/28 01:59:38;;;;;;;;;;;18.00;99.90;;;;;;5078831;28;19916;-67
2021/07/28 02:02:04;;;;;;;;;;;18.00;99.90;;;;;;5078754;28;19921;-68
2021/07/28 02:04:30;;;;;;;;;;;18.00;99.90;;;;;;5091267;28;19939;-67
2021/07/28 02:06:56;;;;;;;;;;;18.00;99.90;;;;;;5094333;28;20284;-69
2021/07/28 02:09:21;;;;;;;;;;;18.00;99.90;;;;;;5094193;28;19924;-69
2021/07/28 02:11:47;;;;;;;;;;;18.00;99.90;;;;;;5092522;28;19925;-68
2021/07/28 02:14:13;;;;;;;;;;;18.00;99.90;;;;;;5092463;28;20308;-67
2021/07/28 02:16:39;;;;;;;;;;;18.10;99.90;;;;;;5080970;28;19912;-66
2021/07/28 02:19:07;;;;;;;;;;;18.10;99.90;;;;;;5082110;28;19916;-67
2021/07/28 02:21:33;;;;;;;;;;;18.00;99.90;;;;;;5075256;28;19917;-66
2021/07/28 02:23:59;;;;;;;;;;;18.10;99.90;;;;;;5091923;28;19941;-68
2021/07/28 02:26:25;;;;;;;;;;;18.00;99.90;;;;;;5074260;28;19919;-68
2021/07/28 02:28:54;;;;;;;;;;;18.10;99.90;;;;;;5082855;28;19916;-67
2021/07/28 02:31:20;;;;;;;;;;;18.00;99.90;;;;;;5092481;28;20373;-68
2021/07/28 02:33:46;;;;;;;;;;;18.00;99.90;;;;;;5093750;28;19923;-67
2021/07/28 02:36:12;;;;;;;;;;;18.00;99.90;;;;;;5093696;28;19924;-68
2021/07/28 02:38:37;;;;;;;;;;;18.00;99.90;;;;;;5074486;28;19947;-68
2021/07/28 02:41:03;;;;;;;;;;;18.00;99.90;;;;;;5075022;28;20416;-67
2021/07/28 02:43:29;;;;;;;;;;;18.00;99.90;;;;;;5079599;28;19931;-67
2021/07/28 02:45:55;;;;;;;;;;;18.00;99.90;;;;;;5092679;28;19916;-67
2021/07/28 02:48:21;;;;;;;;;;;18.00;99.90;;;;;;5093312;28;19916;-67
2021/07/28 02:50:47;;;;;;;;;;;17.90;99.90;;;;;;5091944;28;19924;-68
2021/07/28 02:53:13;;;;;;;;;;;17.90;99.90;;;;;;5093393;28;19916;-68
2021/07/28 02:55:39;;;;;;;;;;;17.90;99.90;;;;;;5088819;28;19924;-67
2021/07/28 02:58:05;;;;;;;;;;;17.90;99.90;;;;;;5092051;28;19912;-68
2021/07/28 03:00:30;;;;;;;;;;;17.90;99.90;;;;;;5078092;28;20618;-68
2021/07/28 03:02:56;;;;;;;;;;;17.90;99.90;;;;;;5093163;28;19916;-68
2021/07/28 03:05:22;;;;;;;;;;;17.90;99.90;;;;;;5091453;28;19947;-67
2021/07/28 03:07:48;;;;;;;;;;;17.90;99.90;;;;;;5092997;28;19916;-68
2021/07/28 03:10:14;;;;;;;;;;;18.00;99.90;;;;;;5091800;28;19924;-67
2021/07/28 03:12:40;;;;;;;;;;;18.00;99.90;;;;;;5073759;28;19921;-68
2021/07/28 03:15:06;;;;;;;;;;;17.90;99.90;;;;;;5085928;28;19916;-67
2021/07/28 03:17:32;;;;;;;;;;;18.00;99.90;;;;;;5092330;28;19912;-68
2021/07/28 03:19:58;;;;;;;;;;;17.90;99.90;;;;;;5090460;28;19916;-68
2021/07/28 03:22:25;;;;;;;;;;;17.90;99.90;;;;;;5073423;28;19921;-68
2021/07/28 03:24:51;;;;;;;;;;;17.90;99.90;;;;;;5088710;28;19916;-67
2021/07/28 03:27:17;;;;;;;;;;;17.90;99.90;;;;;;5093498;28;19943;-68
2021/07/28 03:29:43;;;;;;;;;;;17.90;99.90;;;;;;5086884;28;19923;-67
2021/07/28 03:32:09;;;;;;;;;;;17.90;99.90;;;;;;5089778;28;19927;-67
2021/07/28 03:34:36;;;;;;;;;;;17.90;99.90;;;;;;5082931;28;19950;-68
2021/07/28 03:37:02;;;;;;;;;;;17.90;99.90;;;;;;5093199;28;19916;-68
2021/07/28 03:39:29;;;;;;;;;;;18.00;99.90;;;;;;5092325;28;20365;-68
2021/07/28 03:41:55;;;;;;;;;;;18.00;99.90;;;;;;5092688;28;19923;-68
2021/07/28 03:44:21;;;;;;;;;;;18.10;99.90;;;;;;5077524;28;19916;-68
2021/07/28 03:46:47;;;;;;;;;;;18.10;99.90;;;;;;5092625;28;19920;-68
2021/07/28 03:49:13;;;;;;;;;;;18.10;99.90;;;;;;5091652;28;20273;-67
2021/07/28 03:51:38;;;;;;;;;;;18.10;99.90;;;;;;5089214;28;19931;-67
2021/07/28 03:54:04;;;;;;;;;;;18.10;99.90;;;;;;5072917;28;19983;-68
2021/07/28 03:56:30;;;;;;;;;;;18.10;99.90;;;;;;5072969;28;19924;-68
2021/07/28 03:58:56;;;;;;;;;;;18.10;99.90;;;;;;5091558;28;20288;-67
2021/07/28 04:01:23;;;;;;;;;;;18.10;99.90;;;;;;5084195;28;19970;-67
2021/07/28 04:03:52;;;;;;;;;;;18.10;99.90;;;;;;5081595;28;19923;-67
2021/07/28 04:06:18;;;;;;;;;;;18.10;99.90;;;;;;5073133;28;19923;-67
2021/07/28 04:08:44;;;;;;;;;;;18.10;99.90;;;;;;5073015;28;20281;-68
2021/07/28 04:11:10;;;;;;;;;;;18.10;99.90;;;;;;5089619;28;19931;-67
2021/07/28 04:13:36;;;;;;;;;;;18.10;99.90;;;;;;5088848;28;19923;-68
2021/07/28 04:16:02;;;;;;;;;;;18.10;99.90;;;;;;5071676;28;19923;-67
2021/07/28 04:18:28;;;;;;;;;;;18.10;99.90;;;;;;5073945;28;20281;-68
2021/07/28 04:20:53;;;;;;;;;;;18.10;99.90;;;;;;5078951;28;20427;-68
2021/07/28 04:23:19;;;;;;;;;;;18.10;99.90;;;;;;5074849;28;19917;-67
2021/07/28 04:25:45;;;;;;;;;;;18.10;99.90;;;;;;5076994;28;19912;-68
2021/07/28 04:28:11;;;;;;;;;;;18.10;99.90;;;;;;5095811;28;19916;-68
2021/07/28 04:30:37;;;;;;;;;;;18.10;99.90;;;;;;5093901;28;20373;-68
2021/07/28 04:33:03;;;;;;;;;;;18.10;99.90;;;;;;5082408;28;19924;-68
2021/07/28 04:35:29;;;;;;;;;;;18.20;99.90;;;;;;5076243;28;19917;-68
2021/07/28 04:37:55;;;;;;;;;;;18.30;99.90;;;;;;5085541;28;19920;-68
2021/07/28 04:40:21;;;;;;;;;;;18.40;99.90;;;;;;5096036;28;19924;-68
2021/07/28 04:42:46;;;;;;;;;;;18.60;99.90;;;;;;5095859;28;19927;-69
2021/07/28 04:45:12;;;;;;;;;;;18.60;99.90;;;;;;5095507;28;19924;-68
2021/07/28 04:47:40;;;;;;;;;;;18.70;99.90;;;;;;5093767;28;20200;-68
2021/07/28 04:50:06;;;;;;;;;;;18.80;99.90;;;;;;5083470;28;19916;-67
2021/07/28 04:52:32;;;;;;;;;;;18.90;99.90;;;;;;5091326;28;19920;-68
2021/07/28 04:54:58;;;;;;;;;;;19.00;99.90;;;;;;5076671;28;19939;-67
2021/07/28 04:57:24;;;;;;;;;;;19.00;99.90;;;;;;5075863;28;19928;-68
2021/07/28 04:59:50;;;;;;;;;;;19.00;99.90;;;;;;5083789;28;19924;-68
2021/07/28 05:02:16;;;;;;;;;;;19.10;99.90;;;;;;5075673;28;19923;-69
2021/07/28 05:04:43;;;;;;;;;;;19.10;99.90;;;;;;5091965;28;20230;-68
2021/07/28 05:07:08;;;;;;;;;;;19.10;99.90;;;;;;5095165;28;19923;-68
2021/07/28 05:09:34;;;;;;;;;;;19.00;99.90;;;;;;5081547;28;19916;-67
2021/07/28 05:12:00;;;;;;;;;;;19.00;99.90;;;;;;5091871;28;19920;-67
2021/07/28 05:14:26;;;;;;;;;;;18.90;99.90;;;;;;5076088;28;19916;-68
2021/07/28 05:16:52;;;;;;;;;;;19.00;99.90;;;;;;5095042;28;19923;-67
2021/07/28 05:19:18;;;;;;;;;;;18.90;99.90;;;;;;5094732;28;19923;-68
2021/07/28 05:21:44;;;;;;;;;;;18.90;99.90;;;;;;5094741;28;20339;-67
2021/07/28 05:24:10;;;;;;;;;;;19.00;99.90;;;;;;5087528;28;19919;-67
2021/07/28 05:26:36;;;;;;;;;;;19.10;99.90;;;;;;5075670;28;19924;-67
2021/07/28 05:29:01;;;;;;;;;;;19.00;99.90;;;;;;5080645;28;19923;-67
2021/07/28 05:31:27;;;;;;;;;;;19.10;99.90;;;;;;5094464;28;20435;-68
2021/07/28 05:33:53;;;;;;;;;;;19.10;99.90;;;;;;5083500;28;20365;-67
2021/07/28 05:36:19;;;;;;;;;;;19.10;99.90;;;;;;5074773;28;20337;-68
2021/07/28 05:38:45;;;;;;;;;;;19.10;99.90;;;;;;5076894;28;19924;-68
2021/07/28 05:41:11;;;;;;;;;;;19.10;99.90;;;;;;5094594;28;19916;-68
2021/07/28 05:43:37;;;;;;;;;;;19.20;99.90;;;;;;5094169;28;19924;-67
2021/07/28 05:46:03;;;;;;;;;;;19.20;99.90;;;;;;5094697;28;19923;-68
2021/07/28 05:48:31;;;;;;;;;;;19.30;99.90;;;;;;5092996;28;19923;-68
2021/07/28 05:50:58;;;;;;;;;;;19.40;99.90;;;;;;5094122;28;19952;-67
2021/07/28 05:53:24;;;;;;;;;;;19.50;99.90;;;;;;5084090;28;19931;-68
2021/07/28 05:55:50;;;;;;;;;;;19.40;99.90;;;;;;5082626;28;20015;-68
2021/07/28 05:58:15;;;;;;;;;;;19.30;99.90;;;;;;5092050;28;20292;-68
2021/07/28 06:00:41;;;;;;;;;;;19.40;99.90;;;;;;5079700;28;19919;-68
2021/07/28 06:03:07;;;;;;;;;;;19.40;99.90;;;;;;5074878;28;19924;-68
2021/07/28 06:05:33;;;;;;;;;;;19.50;99.90;;;;;;5080802;28;19939;-66
2021/07/28 06:07:59;;;;;;;;;;;19.50;99.90;;;;;;5078803;28;20253;-68
2021/07/28 06:10:25;;;;;;;;;;;19.60;99.90;;;;;;5094057;28;19920;-68
2021/07/28 06:12:51;;;;;;;;;;;19.50;99.90;;;;;;5084619;28;19925;-68
2021/07/28 06:15:17;;;;;;;;;;;19.50;99.90;;;;;;5075462;28;19943;-68
2021/07/28 06:17:43;;;;;;;;;;;19.50;99.90;;;;;;5074302;28;19966;-68
2021/07/28 06:20:09;;;;;;;;;;;19.50;99.90;;;;;;5075027;28;20350;-68
2021/07/28 06:22:35;;;;;;;;;;;19.50;99.90;;;;;;5075809;28;19916;-67
2021/07/28 06:25:01;;;;;;;;;;;19.60;99.90;;;;;;5093774;28;19965;-68
2021/07/28 06:27:27;;;;;;;;;;;19.60;99.90;;;;;;5093758;28;20294;-66
2021/07/28 06:29:53;;;;;;;;;;;19.70;99.90;;;;;;5090803;28;19916;-67
2021/07/28 06:32:19;;;;;;;;;;;19.70;99.90;;;;;;5074068;28;19924;-67
2021/07/28 06:34:45;;;;;;;;;;;19.80;99.90;;;;;;5089449;28;19920;-67
2021/07/28 06:37:11;;;;;;;;;;;19.90;99.90;;;;;;5094104;28;20293;-68
2021/07/28 06:39:37;;;;;;;;;;;20.00;99.90;;;;;;5093798;28;19927;-68
2021/07/28 06:42:03;;;;;;;;;;;19.90;99.90;;;;;;5092221;28;19932;-67
2021/07/28 06:44:29;;;;;;;;;;;20.00;99.90;;;;;;5093630;28;19912;-68
2021/07/28 06:46:55;;;;;;;;;;;20.00;99.90;;;;;;5078576;28;19920;-68
2021/07/28 06:49:20;;;;;;;;;;;20.00;99.90;;;;;;5073474;28;19916;-69
2021/07/28 06:51:46;;;;;;;;;;;20.00;99.90;;;;;;5073701;28;19925;-67
2021/07/28 06:54:12;;;;;;;;;;;19.90;99.90;;;;;;5093490;28;19916;-67
2021/07/28 06:56:38;;;;;;;;;;;19.90;99.90;;;;;;5084570;28;20281;-67
2021/07/28 06:59:04;;;;;;;;;;;20.00;99.90;;;;;;5084958;28;19923;-68
2021/07/28 07:01:31;;;;;;;;;;;20.00;99.90;;;;;;5092828;28;19923;-67
2021/07/28 07:03:57;;;;;;;;;;;20.30;99.90;;;;;;5091900;28;19978;-67
2021/07/28 07:06:22;;;;;;;;;;;20.40;99.90;;;;;;5093225;28;19920;-67
2021/07/28 07:08:48;;;;;;;;;;;20.40;99.90;;;;;;5082677;28;19912;-67
2021/07/28 07:11:14;;;;;;;;;;;20.30;99.90;;;;;;5088759;28;19916;-65
2021/07/28 07:13:40;;;;;;;;;;;20.40;99.90;;;;;;5077185;28;19920;-67
2021/07/28 07:16:06;;;;;;;;;;;20.30;99.90;;;;;;5093068;28;19923;-66
2021/07/28 07:18:32;;;;;;;;;;;20.30;99.90;;;;;;5079703;28;19919;-67
2021/07/28 07:20:58;;;;;;;;;;;20.10;99.90;;;;;;5083338;28;19923;-67
2021/07/28 07:23:24;;;;;;;;;;;20.00;99.90;;;;;;5092613;28;20294;-66
2021/07/28 07:25:50;;;;;;;;;;;19.90;99.90;;;;;;5092921;28;19923;-67
2021/07/28 07:28:16;;;;;;;;;;;20.00;99.90;;;;;;5092346;28;19936;-66
2021/07/28 07:30:42;;;;;;;;;;;20.10;99.90;;;;;;5083385;28;19916;-68
2021/07/28 07:35:52;;;;;;;;;;;20.10;99.90;;;;;;5080295;28;20273;-67
2021/07/28 07:38:18;;;;;;;;;;;20.20;99.90;;;;;;5088692;28;19916;-68
2021/07/28 07:40:44;;;;;;;;;;;20.40;99.90;;;;;;5093422;28;19912;-67
2021/07/28 07:43:11;;;;;;;;;;;20.50;99.90;;;;;;5093324;28;19924;-67
2021/07/28 07:45:37;;;;;;;;;;;20.90;99.90;;;;;;5090200;28;19923;-67
2021/07/28 07:48:04;;;;;;;;;;;21.00;99.90;;;;;;5093338;28;19935;-67
2021/07/28 07:50:35;;;;;;;;;;;20.70;99.90;;;;;;5092940;28;20269;-66
2021/07/28 07:53:01;;;;;;;;;;;20.70;99.90;;;;;;5081134;28;19924;-66
2021/07/28 07:55:27;;;;;;;;;;;20.60;99.90;;;;;;5079327;28;19916;-66
2021/07/28 07:57:53;;;;;;;;;;;20.70;99.90;;;;;;5077852;28;20381;-65
2021/07/28 08:00:19;;;;;;;;;;;20.70;99.90;;;;;;5081503;28;19916;-66
2021/07/28 08:02:45;;;;;;;;;;;20.70;99.90;;;;;;5108975;28;19912;-67
2021/07/28 08:05:11;;;;;;;;;;;20.60;99.90;;;;;;5099434;28;19919;-66
2021/07/28 08:07:37;;;;;;;;;;;20.60;99.90;;;;;;5117559;28;20356;-66
2021/07/28 08:10:03;;;;;;;;;;;20.50;99.90;;;;;;5087156;28;19923;-66
2021/07/28 08:12:29;;;;;;;;;;;20.50;99.90;;;;;;5077197;28;20273;-66
2021/07/28 08:14:55;;;;;;;;;;;20.50;99.90;;;;;;5077713;28;19912;-67
2021/07/28 08:17:21;;;;;;;;;;;20.50;99.90;;;;;;5078176;28;19916;-65
2021/07/28 08:19:46;;;;;;;;;;;20.50;99.90;;;;;;5085045;28;19916;-66
2021/07/28 08:22:12;;;;;;;;;;;20.30;99.90;;;;;;5095472;28;20276;-65
2021/07/28 08:24:38;;;;;;;;;;;20.20;99.90;;;;;;5076928;28;19924;-66
2021/07/28 08:27:04;;;;;;;;;;;20.20;99.90;;;;;;5091173;28;19923;-66
2021/07/28 08:29:30;;;;;;;;;;;20.10;99.90;;;;;;5096384;28;19923;-66
2021/07/28 08:31:56;;;;;;;;;;;19.90;99.90;;;;;;5096766;28;20280;-66
2021/07/28 08:34:22;;;;;;;;;;;19.40;99.90;;;;;;5093461;28;19920;-66
2021/07/28 08:36:48;;;;;;;;;;;19.00;99.90;;;;;;5097117;28;19917;-67
2021/07/28 08:39:14;;;;;;;;;;;18.40;99.90;;;;;;5096311;28;19912;-71
2021/07/28 08:41:41;;;;;;;;;;;18.10;99.90;;;;;;5087836;28;20389;-69
2021/07/28 08:44:07;;;;;;;;;;;17.80;99.90;;;;;;5077241;28;19916;-68
2021/07/28 08:46:33;;;;;;;;;;;17.70;99.90;;;;;;5077530;28;19912;-68
2021/07/28 08:48:59;;;;;;;;;;;17.70;99.90;;;;;;5096128;28;20361;-66
2021/07/28 08:51:26;;;;;;;;;;;17.60;99.90;;;;;;5081298;28;19912;-67
2021/07/28 08:53:52;;;;;;;;;;;17.50;99.90;;;;;;5074916;28;19920;-67
2021/07/28 08:56:17;;;;;;;;;;;17.60;99.90;;;;;;5077121;28;19940;-67
2021/07/28 08:58:44;;;;;;;;;;;17.70;99.90;;;;;;5085766;28;19909;-68
2021/07/28 09:01:09;;;;;;;42.83;23.33;;;17.80;99.90;;;;;;5076518;28;20419;-68
2021/07/28 09:03:36;;;;;;;39.10;20.93;;;17.80;99.90;;;;;;5079738;28;20390;-67
2021/07/28 09:06:02;;;;;;;38.97;22.00;;;17.90;99.90;;;;;;5085182;28;20392;-62
2021/07/28 09:08:32;;;;;;;34.08;19.85;;;18.00;99.90;;;;;;5083249;28;20720;-62
2021/07/28 09:10:59;;;;;;;26.48;17.67;;;18.00;99.90;;;;;;5081092;28;20460;-62
2021/07/28 09:13:27;;;;;;;25.65;16.50;;;18.00;99.90;;;;;;5084149;28;20408;-62
2021/07/28 09:15:57;;;;;;;32.17;18.85;;;17.90;99.90;;;;;;5079098;28;21081;-62
2021/07/28 09:18:42;;;;;;;31.05;20.30;;;17.90;99.90;;;;;;5085276;28;20846;-62
2021/07/28 09:21:21;;;;;;;35.28;19.75;;;18.00;99.90;;;;;;5083113;28;20852;-60
2021/07/28 09:23:47;;;;;;;34.13;18.35;;;18.10;99.90;;;;;;5080240;28;20376;-60
2021/07/28 09:26:32;;;;;;;33.80;17.48;;;18.20;99.90;;;;;;5081124;28;20842;-62
2021/07/28 09:29:08;;;;;;;31.45;19.17;;;18.10;99.90;;;;;;5080203;28;20374;-63
2021/07/28 09:31:36;;;;;;;36.65;20.95;;;18.20;99.90;;;;;;5083060;28;20380;-62
2021/07/28 09:34:08;;;;;;;29.38;19.65;;;18.30;99.90;;;;;;5087102;28;20912;-67
2021/07/28 09:36:35;;;;;;;32.15;20.27;;;18.30;99.90;;;;;;5077523;28;20755;-62
2021/07/28 09:39:01;;;;;;;31.77;19.42;;;18.20;99.90;;;;;;5074542;28;20398;-61
2021/07/28 09:41:27;;;;;;;31.73;19.83;;;18.30;99.90;;;;;;5083530;28;20390;-61
2021/07/28 09:43:58;;;;;;;30.88;18.77;;;18.30;99.90;;;;;;5074291;28;20377;-62
2021/07/28 09:46:28;;;;;;;35.05;20.10;;;18.30;99.90;;;;;;5073720;28;20873;-61
2021/07/28 09:48:54;;;;;;;28.20;17.25;;;18.40;99.90;;;;;;5075930;28;20389;-61
2021/07/28 09:51:27;;;;;;;27.80;18.42;;;18.30;99.90;;;;;;5093019;28;20392;-61
2021/07/28 09:53:57;;;;;;;28.08;17.70;;;18.20;99.90;;;;;;5079108;28;20405;-61
2021/07/28 09:56:50;;;;;;;31.10;18.17;;;18.20;99.90;;;;;;5087314;28;20867;-61
2021/07/28 09:59:16;;;;;;;24.13;16.38;;;18.20;99.90;;;;;;5070637;28;20397;-62
2021/07/28 10:01:44;;;;;;;26.90;17.08;;;18.30;99.90;;;;;;5073052;28;20382;-62
2021/07/28 10:04:11;;;;;;;23.00;16.38;;;18.30;99.90;;;;;;5084656;28;20868;-63
2021/07/28 10:06:41;;;;;;;26.98;16.02;;;18.40;99.90;;;;;;5072006;28;20878;-63
2021/07/28 10:09:29;;;;;;;25.43;15.93;;;18.40;99.90;;;;;;5073968;28;20370;-63
2021/07/28 10:11:57;;;;;;;23.50;15.40;;;18.30;99.90;;;;;;5073346;28;20382;-62
2021/07/28 10:14:23;;;;;;;25.08;16.08;;;18.20;99.90;;;;;;5055448;28;20713;-63
2021/07/28 10:16:49;;;;;;;24.67;16.50;;;18.20;99.90;;;;;;5078768;28;20384;-62
2021/07/28 10:19:16;;;;;;;26.27;17.27;;;18.20;99.90;;;;;;5074870;28;20388;-63
2021/07/28 10:21:42;;;;;;;27.33;17.00;;;18.20;99.90;;;;;;5093561;28;20395;-62
2021/07/28 10:24:12;;;;;;;23.03;15.57;;;18.20;99.90;;;;;;5092399;28;20373;-62
2021/07/28 10:26:39;;;;;;;25.05;16.02;;;18.30;99.90;;;;;;5092689;28;20380;-62
2021/07/28 10:29:05;;;;;;;19.02;14.02;;;18.30;99.90;;;;;;5071306;28;20382;-62
2021/07/28 10:31:51;;;;;;;19.13;13.45;;;18.30;99.90;;;;;;5089678;28;20391;-62
2021/07/28 10:34:24;;;;;;;26.80;15.30;;;18.40;99.90;;;;;;5091595;28;20408;-63
2021/07/28 10:36:52;;;;;;;20.40;13.43;;;18.40;99.90;;;;;;5092858;28;20915;-63
2021/07/28 10:39:34;;;;;;;19.30;11.80;;;18.50;99.90;;;;;;5084973;28;20841;-62
2021/07/28 10:42:01;;;;;;;19.23;13.85;;;18.50;99.90;;;;;;5073942;28;20401;-62
2021/07/28 10:44:27;;;;;;;22.08;13.70;;;18.60;99.90;;;;;;5081443;28;20382;-62
2021/07/28 10:46:56;;;;;;;23.50;14.02;;;18.70;99.90;;;;;;5083415;28;20401;-61
2021/07/28 10:49:34;;;;;;;17.48;12.18;;;19.00;99.90;;;;;;5092039;28;20377;-62
2021/07/28 10:52:13;;;;;;;16.88;11.88;;;19.10;99.90;;;;;;5092654;28;20391;-63
2021/07/28 10:54:46;;;;;;;16.92;11.52;;;19.20;99.90;;;;;;5092553;28;20395;-63
2021/07/28 10:57:35;;;;;;;19.37;12.83;;;19.20;99.90;;;;;;5091448;28;20380;-63
2021/07/28 11:00:03;;;;;;;20.52;12.05;;;19.30;99.90;;;;;;5092390;28;20737;-62
2021/07/28 11:02:52;;;;;;;18.83;12.07;;;19.60;99.90;;;;;;5092858;28;20376;-63
2021/07/28 11:05:22;;;;;;;18.27;11.77;;;20.10;99.90;;;;;;5076432;28;20415;-63
2021/07/28 11:08:05;;;;;;;16.57;11.33;;;20.30;99.90;;;;;;5089548;28;20840;-62
2021/07/28 11:10:57;;;;;;;14.30;10.43;;;20.50;99.90;;;;;;5092677;28;20399;-63
2021/07/28 11:13:27;;;;;;;12.00;9.33;;;20.50;99.90;;;;;;5092885;28;20391;-64
2021/07/28 11:15:58;;;;;;;13.35;9.40;;;20.40;99.90;;;;;;5082989;28;20382;-62
2021/07/28 11:18:54;;;;;;;11.65;9.40;;;21.00;99.90;;;;;;5064900;28;20451;-61
2021/07/28 11:21:22;;;;;;;13.88;9.02;;;21.40;99.90;;;;;;5075918;28;20437;-63
2021/07/28 11:24:02;;;;;;;12.55;8.02;;;22.20;99.90;;;;;;5080391;28;20178;-63
2021/07/28 11:26:35;;;;;;;12.52;7.95;;;22.40;99.90;;;;;;5075532;28;20181;-63
2021/07/28 11:29:09;;;;;;;8.00;6.28;;;22.40;99.90;;;;;;5074332;28;20178;-63
2021/07/28 11:31:37;;;;;;;11.50;7.00;;;22.30;99.90;;;;;;5090931;28;20208;-63
2021/07/28 11:34:03;;;;;;;;;;;22.00;99.90;;;;;;5071797;28;20052;-62
2021/07/28 11:36:29;;;;;;;;;;;21.70;99.90;;;;;;5082047;28;20005;-62
2021/07/28 11:38:55;;;;;;;;;;;21.10;99.90;;;;;;5091492;28;19913;-62
2021/07/28 11:41:21;;;;;;;;;;;20.90;99.90;;;;;;5095316;28;19916;-62
2021/07/28 11:43:46;;;;;;;;;;;20.80;99.90;;;;;;5086775;28;20388;-62
2021/07/28 11:46:13;;;;;;;;;;;20.80;99.90;;;;;;5076777;28;19912;-61
2021/07/28 11:48:44;;;;;;;;;;;20.70;99.90;;;;;;5079029;28;19909;-62
2021/07/28 11:51:11;;;;;;;;;;;20.50;99.90;;;;;;5084351;28;19908;-62
2021/07/28 11:53:37;;;;;;;;;;;20.20;99.90;;;;;;5086044;28;19920;-61
2021/07/28 11:56:06;;;;;;;;;;;20.10;99.90;;;;;;5076945;28;19908;-62
2021/07/28 11:58:32;;;;;;;;;;;20.10;99.90;;;;;;5088936;28;20276;-62
2021/07/28 12:00:58;;;;;;;;;;;19.90;99.90;;;;;;5086396;28;20366;-62
2021/07/28 12:03:27;;;;;;;;;;;19.90;99.90;;;;;;5076744;28;19920;-62
2021/07/28 12:05:59;;;;;;;;;;;19.90;99.90;;;;;;5087938;28;19919;-61
2021/07/28 12:08:43;;;;;;;;;;;19.80;99.90;;;;;;5083358;28;19935;-61
2021/07/28 12:11:09;;;;;;;;;;;19.90;99.90;;;;;;5077582;28;19908;-62
2021/07/28 12:13:45;;;;;;;;;;;19.90;99.90;;;;;;5080709;28;19920;-62
2021/07/28 12:16:11;;;;;;;;;;;19.90;99.90;;;;;;5082289;28;20369;-61
2021/07/28 12:18:40;;;;;;;;;;;20.00;99.90;;;;;;5087590;28;19922;-61
2021/07/28 12:21:06;;;;;;;;;;;20.10;99.90;;;;;;5096984;28;19908;-61
2021/07/28 12:23:32;;;;;;;;;;;20.40;99.90;;;;;;5096112;28;19919;-62
2021/07/28 12:25:58;;;;;;;;;;;20.80;99.90;;;;;;5096692;28;19904;-61
2021/07/28 12:28:44;;;;;;;;;;;21.20;99.90;;;;;;5098270;28;20225;-62
2021/07/28 12:31:23;;;;;;;;;;;21.20;99.90;;;;;;5095691;28;19916;-61
2021/07/28 12:33:49;;;;;;;;;;;21.30;99.90;;;;;;5095003;28;19916;-62
2021/07/28 12:36:15;;;;;;;;;;;21.10;99.90;;;;;;5076797;28;19908;-62
2021/07/28 12:38:42;;;;;;;;;;;21.00;99.90;;;;;;5094754;28;20361;-62
2021/07/28 12:41:08;;;;;;;;;;;21.00;99.90;;;;;;5094071;28;20356;-62
2021/07/28 12:43:35;;;;;;;;;;;21.00;99.90;;;;;;5078461;28;19927;-62
2021/07/28 12:46:01;;;;;;;;;;;21.00;99.90;;;;;;5082521;28;19912;-63
2021/07/28 12:48:28;;;;;;;;;;;21.20;99.90;;;;;;5076412;28;19927;-62
2021/07/28 12:50:54;;;;;;;;;;;21.50;99.90;;;;;;5090978;28;20331;-62
2021/07/28 12:53:20;;;;;;;;;;;21.70;99.90;;;;;;5080434;28;19931;-62
2021/07/28 12:55:46;;;;;;;;;;;22.10;99.90;;;;;;5095538;28;20001;-63
2021/07/28 12:58:12;;;;;;;;;;;22.00;99.90;;;;;;5078969;28;19912;-62
2021/07/28 13:00:38;;;;;;;;;;;21.80;99.90;;;;;;5077778;28;19912;-62
2021/07/28 13:03:05;;;;;;;;;;;21.80;99.90;;;;;;5076894;28;19951;-63
2021/07/28 13:05:32;;;;;;;;;;;21.80;99.90;;;;;;5082154;28;20282;-62
2021/07/28 13:08:07;;;;;;;;;;;21.70;99.90;;;;;;5085325;28;20376;-62
2021/07/28 13:10:33;;;;;;;;;;;21.90;99.90;;;;;;5078622;28;20360;-63
2021/07/28 13:12:59;;;;;;;;;;;21.90;99.90;;;;;;5075808;28;19909;-62
2021/07/28 13:15:26;;;;;;;;;;;21.90;99.90;;;;;;5077329;28;19913;-62
2021/07/28 13:17:52;;;;;;;;;;;22.00;99.90;;;;;;5094055;28;19912;-62
2021/07/28 13:20:18;;;;;;;;;;;22.10;99.90;;;;;;5083026;28;20363;-63
2021/07/28 13:22:43;;;;;;;;;;;22.00;98.90;;;;;;5087072;28;19916;-63
2021/07/28 13:25:10;;;;;;;;;;;22.10;98.80;;;;;;5079271;28;19931;-63
2021/07/28 13:27:36;;;;;;;;;;;22.20;99.00;;;;;;5076385;28;20296;-63
2021/07/28 13:30:02;;;;;;;;;;;22.30;98.00;;;;;;5090213;28;19909;-60
2021/07/28 13:32:28;;;;;;;;;;;22.50;97.50;;;;;;5083044;28;19915;-63
2021/07/28 13:34:54;;;;;;;;;;;22.50;96.80;;;;;;5094555;28;19920;-62
2021/07/28 13:37:20;;;;;;;;;;;22.50;96.50;;;;;;5094664;28;19912;-62
2021/07/28 13:39:46;;;;;;;;;;;22.30;97.10;;;;;;5094293;28;20308;-63
2021/07/28 13:42:11;;;;;;;;;;;22.20;96.50;;;;;;5093012;28;19916;-62
2021/07/28 13:44:37;;;;;;;;;;;22.30;97.00;;;;;;5080432;28;19913;-63
2021/07/28 13:47:03;;;;;;;;;;;22.40;96.80;;;;;;5080936;28;19908;-66
2021/07/28 13:49:29;;;;;;;;;;;22.60;96.30;;;;;;5078068;28;20276;-63
2021/07/28 13:51:58;;;;;;;;;;;22.50;96.20;;;;;;5072638;28;20313;-63
2021/07/28 13:54:24;;;;;;;;;;;22.30;96.10;;;;;;5072533;28;20531;-62
2021/07/28 13:57:06;;;;;;;;;;;22.30;95.90;;;;;;5072767;28;19904;-62
2021/07/28 13:59:32;;;;;;;;;;;22.30;96.20;;;;;;5070502;28;19927;-62
2021/07/28 14:01:58;;;;;;;;;;;22.50;95.20;;;;;;5072405;28;19909;-62
2021/07/28 14:04:24;;;;;;;;;;;22.40;94.70;;;;;;5072906;28;20364;-62
2021/07/28 14:06:50;;;;;;;;;;;22.50;93.60;;;;;;5072671;28;19915;-62